Current | Forecast
Updated: 11:55 PM JST on January 17, 2018
Observed at Iwakuni MCAS, Japan
Temperature 47°F
Humidity 83%
Dew Point 42°F
Wind NW at 6 mph
Pressure 30.10 in (Rising)
Conditions Scattered Clouds
Visibility 6.2 miles
UV 0 out of 16
Clouds (FEW) : 1500 ft
Scattered Clouds (SCT) : 3000 ft
Yesterday's Maximum 61°F
Yesterday's Minimum 46°F
Yesterday's Heating Degree Days 11
Sunrise7:17 AM JST
Sunset5:27 PM JST
Moon Rise7:51 AM JST
Moon Set6:32 PM JST
Moon PhaseMoon Phase
New Moon
Raw METARMETAR RJOI 171455Z 31005KT 9999 FEW015 SCT030 08/06 A3010 RMK SLP191 T00830056 401610083 53017


Monday
. High: 71° F.
Tuesday
. High: 75° F.
Wednesday
. High: 73° F.
Thursday
. High: 75° F.
Friday
. High: 71° F.
Saturday
. High: 75° F.
Sunday
. High: 78° F.
Monday
. High: 78° F.

Units: English | Metric

Find the Weather for any City, State or Zipcode, or Country:

U.S. State List | Severe Weather | Tropical Storms | Ski Conditions
United States | Canada | Central America | South America | Asia | Europe | Australia | Africa | Islands

Weather Underground

© Copyright 2018
The Weather Company, LLC